createdAt,value
2018-09-30T00:00:26.090Z,101717.50
2018-09-30T00:02:54.398Z,101716.75
2018-09-30T00:05:22.629Z,101713.40
2018-09-30T00:07:51.099Z,101717.08
2018-09-30T00:10:19.316Z,101716.70
2018-09-30T00:12:47.575Z,101717.19
2018-09-30T00:15:15.724Z,101712.65
2018-09-30T00:17:43.880Z,101711.70
2018-09-30T00:20:12.067Z,101716.41
2018-09-30T00:22:40.236Z,101710.52
2018-09-30T00:25:13.823Z,101703.55
2018-09-30T00:27:42.004Z,101708.22
2018-09-30T00:30:10.223Z,101706.44
2018-09-30T00:32:39.263Z,101701.78
2018-09-30T00:35:07.461Z,101697.47
2018-09-30T00:37:35.640Z,101696.72
2018-09-30T00:40:03.834Z,101693.36
2018-09-30T00:42:32.008Z,101687.91
2018-09-30T00:45:00.292Z,101684.34
2018-09-30T00:47:28.603Z,101686.45
2018-09-30T00:49:56.847Z,101674.39
2018-09-30T00:52:25.003Z,101671.30
2018-09-30T00:54:53.183Z,101668.61
2018-09-30T00:57:21.447Z,101661.45
2018-09-30T00:59:49.679Z,101653.44
2018-09-30T01:02:17.919Z,101656.55
2018-09-30T01:04:46.103Z,101650.15
2018-09-30T01:07:14.308Z,101647.55
2018-09-30T01:09:42.558Z,101650.48
2018-09-30T01:12:10.743Z,101646.81
2018-09-30T01:14:38.922Z,101639.46
2018-09-30T01:17:07.083Z,101633.81
2018-09-30T01:19:35.283Z,101628.95
2018-09-30T01:22:03.514Z,101630.27
2018-09-30T01:24:31.727Z,101628.98
2018-09-30T01:26:59.939Z,101626.45
2018-09-30T01:29:28.212Z,101624.81
2018-09-30T01:31:56.363Z,101620.86
2018-09-30T01:34:24.762Z,101622.88
2018-09-30T01:36:52.951Z,101613.80
2018-09-30T01:39:21.140Z,101611.25
2018-09-30T01:41:49.318Z,101604.47
2018-09-30T01:44:17.500Z,101604.09
2018-09-30T01:46:45.706Z,101605.59
2018-09-30T01:49:13.885Z,101597.73
2018-09-30T01:51:42.104Z,101602.03
2018-09-30T01:54:10.276Z,101597.14
2018-09-30T01:56:38.540Z,101599.14
2018-09-30T01:59:06.779Z,101593.88
2018-09-30T02:01:34.976Z,101590.39
2018-09-30T02:04:03.174Z,101589.92
2018-09-30T02:06:31.383Z,101586.16
2018-09-30T02:08:59.592Z,101584.08
2018-09-30T02:11:27.828Z,101576.09
2018-09-30T02:13:56.078Z,101584.21
2018-09-30T02:16:24.651Z,101579.13
2018-09-30T02:18:52.837Z,101577.44
2018-09-30T02:21:20.999Z,101573.77
2018-09-30T02:23:49.190Z,101564.26
2018-09-30T02:26:17.359Z,101568.21
2018-09-30T02:28:45.536Z,101573.20
2018-09-30T02:31:13.882Z,101561.81
2018-09-30T02:33:42.074Z,101565.95
2018-09-30T02:36:10.278Z,101564.92
2018-09-30T02:38:38.493Z,101563.03
2018-09-30T02:41:06.687Z,101564.92
2018-09-30T02:43:34.905Z,101569.53
2018-09-30T02:46:03.110Z,101565.20
2018-09-30T02:48:31.403Z,101562.37
2018-09-30T02:50:59.868Z,101564.16
2018-09-30T02:53:32.219Z,101564.26
2018-09-30T02:56:00.379Z,101561.56
2018-09-30T02:58:28.572Z,101549.89
2018-09-30T03:00:56.758Z,101545.66
2018-09-30T03:03:24.925Z,101546.59
2018-09-30T03:05:53.087Z,101540.95
2018-09-30T03:08:26.523Z,101538.13
2018-09-30T03:10:54.751Z,101529.38
2018-09-30T03:13:23.058Z,101528.72
2018-09-30T03:15:51.247Z,101525.05
2018-09-30T03:18:19.475Z,101519.44
2018-09-30T03:20:47.651Z,101507.11
2018-09-30T03:23:15.813Z,101516.67
2018-09-30T03:25:43.978Z,101499.55
2018-09-30T03:28:12.256Z,101498.61
2018-09-30T03:30:40.459Z,101502.47
2018-09-30T03:33:08.615Z,101494.47
2018-09-30T03:35:36.775Z,101499.08
2018-09-30T03:38:04.994Z,101507.08
2018-09-30T03:40:33.202Z,101491.80
2018-09-30T03:43:01.375Z,101493.20
2018-09-30T03:45:29.566Z,101499.32
2018-09-30T03:47:57.783Z,101492.55
2018-09-30T03:50:25.940Z,101487.47
2018-09-30T03:52:54.136Z,101489.58
2018-09-30T03:55:22.334Z,101490.70
2018-09-30T03:57:50.545Z,101483.74
2018-09-30T04:00:19.168Z,101492.50
2018-09-30T04:02:47.346Z,101486.38
2018-09-30T04:05:15.603Z,101477.82
2018-09-30T04:07:43.775Z,101477.72
2018-09-30T04:10:12.046Z,101481.58
2018-09-30T04:12:40.123Z,101471.14
2018-09-30T04:15:08.363Z,101474.15
2018-09-30T04:17:36.524Z,101464.73
2018-09-30T04:20:04.723Z,101461.54
2018-09-30T04:22:32.887Z,101464.08
2018-09-30T04:25:01.067Z,101460.13
2018-09-30T04:27:29.263Z,101456.27
2018-09-30T04:29:57.452Z,101450.72
2018-09-30T04:32:25.635Z,101449.50
2018-09-30T04:34:53.806Z,101446.44
2018-09-30T04:37:21.982Z,101440.05
2018-09-30T04:39:50.217Z,101445.97
2018-09-30T04:42:19.021Z,101441.86
2018-09-30T04:44:47.299Z,101445.62
2018-09-30T04:47:15.471Z,101438.86
2018-09-30T04:49:43.665Z,101450.05
2018-09-30T04:52:11.835Z,101454.09
2018-09-30T04:54:40.647Z,101450.73
2018-09-30T04:57:08.847Z,101452.52
2018-09-30T04:59:37.051Z,101449.23
2018-09-30T05:02:05.243Z,101449.31
2018-09-30T05:04:34.032Z,101445.09
2018-09-30T05:07:02.265Z,101445.18
2018-09-30T05:09:30.519Z,101451.01
2018-09-30T05:11:58.700Z,101446.21
2018-09-30T05:14:26.846Z,101452.32
2018-09-30T05:16:55.218Z,101454.20
2018-09-30T05:19:23.410Z,101446.30
2018-09-30T05:21:51.629Z,101452.23
2018-09-30T05:24:19.782Z,101447.53
2018-09-30T05:26:47.972Z,101449.44
2018-09-30T05:29:16.130Z,101445.84
2018-09-30T05:31:44.364Z,101447.53
2018-09-30T05:34:12.604Z,101449.06
2018-09-30T05:36:40.796Z,101446.23
2018-09-30T05:39:10.018Z,101443.59
2018-09-30T05:41:38.815Z,101441.14
2018-09-30T05:44:07.674Z,101437.22
2018-09-30T05:46:35.859Z,101430.91
2018-09-30T05:49:04.200Z,101430.63
2018-09-30T05:51:32.547Z,101428.19
2018-09-30T05:54:00.715Z,101423.87
2018-09-30T05:56:28.994Z,101427.98
2018-09-30T05:58:57.189Z,101430.25
2018-09-30T06:01:25.478Z,101425.74
2018-09-30T06:03:53.862Z,101430.45
2018-09-30T06:06:22.157Z,101438.16
2018-09-30T06:08:50.382Z,101440.79
2018-09-30T06:11:18.588Z,101434.96
2018-09-30T06:13:47.161Z,101433.64
2018-09-30T06:16:15.240Z,101442.11
2018-09-30T06:18:43.438Z,101442.11
2018-09-30T06:21:11.619Z,101447.75
2018-09-30T06:23:39.836Z,101447.84
2018-09-30T06:26:07.978Z,101444.92
2018-09-30T06:28:36.208Z,101447.17
2018-09-30T06:31:04.396Z,101452.07
2018-09-30T06:33:33.443Z,101446.21
2018-09-30T06:36:01.640Z,101445.65
2018-09-30T06:38:29.839Z,101445.65
2018-09-30T06:40:58.065Z,101445.09
2018-09-30T06:43:26.308Z,101443.96
2018-09-30T06:45:54.493Z,101447.34
2018-09-30T06:48:22.779Z,101448.73
2018-09-30T06:50:51.307Z,101442.52
2018-09-30T06:53:19.505Z,101445.81
2018-09-30T06:55:47.743Z,101445.22
2018-09-30T06:58:15.962Z,101446.91
2018-09-30T07:00:44.186Z,101447.09
2018-09-30T07:03:13.102Z,101444.27
2018-09-30T07:05:41.311Z,101446.63
2018-09-30T07:08:09.506Z,101443.39
2018-09-30T07:10:37.785Z,101440.84
2018-09-30T07:13:06.170Z,101444.61
2018-09-30T07:15:34.470Z,101447.42
2018-09-30T07:18:02.656Z,101442.67
2018-09-30T07:20:30.860Z,101443.61
2018-09-30T07:22:59.043Z,101441.62
2018-09-30T07:25:27.191Z,101449.20
2018-09-30T07:27:55.399Z,101448.81
2018-09-30T07:30:23.611Z,101452.38
2018-09-30T07:32:51.820Z,101448.00
2018-09-30T07:35:20.009Z,101452.50
2018-09-30T07:37:48.636Z,101446.36
2018-09-30T07:40:17.319Z,101441.34
2018-09-30T07:42:45.502Z,101430.16
2018-09-30T07:45:14.287Z,101438.41
2018-09-30T07:47:43.159Z,101438.44
2018-09-30T07:50:11.342Z,101437.66
2018-09-30T07:52:39.586Z,101429.81
2018-09-30T07:55:07.725Z,101429.27
2018-09-30T07:57:35.895Z,101426.22
2018-09-30T08:00:05.401Z,101417.95
2018-09-30T08:02:33.576Z,101426.87
2018-09-30T08:05:01.755Z,101425.25
2018-09-30T08:07:30.627Z,101426.11
2018-09-30T08:09:59.471Z,101425.06
2018-09-30T08:12:28.317Z,101429.45
2018-09-30T08:14:56.551Z,101420.47
2018-09-30T08:17:24.759Z,101422.39
2018-09-30T08:19:52.944Z,101415.58
2018-09-30T08:22:21.130Z,101412.72
2018-09-30T08:24:49.355Z,101404.59
2018-09-30T08:27:17.549Z,101406.91
2018-09-30T08:29:46.392Z,101407.50
2018-09-30T08:32:14.586Z,101413.31
2018-09-30T08:34:42.786Z,101413.83
2018-09-30T08:37:11.091Z,101412.63
2018-09-30T08:39:39.980Z,101419.86
2018-09-30T08:42:08.111Z,101414.80
2018-09-30T08:44:36.314Z,101413.37
2018-09-30T08:47:04.743Z,101410.77
2018-09-30T08:49:32.954Z,101410.44
2018-09-30T08:52:01.545Z,101410.45
2018-09-30T08:54:29.795Z,101409.17
2018-09-30T08:56:58.009Z,101408.95
2018-09-30T08:59:26.175Z,101413.80
2018-09-30T09:01:54.337Z,101416.11
2018-09-30T09:04:22.652Z,101417.69
2018-09-30T09:06:51.205Z,101406.52
2018-09-30T09:09:19.422Z,101404.61
2018-09-30T09:11:47.610Z,101395.11
2018-09-30T09:14:15.791Z,101401.02
2018-09-30T09:16:44.548Z,101399.72
2018-09-30T09:19:12.828Z,101400.45
2018-09-30T09:21:41.511Z,101395.16
2018-09-30T09:24:09.735Z,101389.77
2018-09-30T09:26:37.920Z,101391.67
2018-09-30T09:29:06.174Z,101388.21
2018-09-30T09:31:34.420Z,101391.22
2018-09-30T09:34:02.674Z,101391.97
2018-09-30T09:36:33.806Z,101386.59
2018-09-30T09:39:02.872Z,101380.21
2018-09-30T09:41:31.476Z,101379.13
2018-09-30T09:43:59.661Z,101381.91
2018-09-30T09:46:27.919Z,101380.22
2018-09-30T09:48:56.078Z,101372.16
2018-09-30T09:51:24.354Z,101374.31
2018-09-30T09:53:52.889Z,101365.05
2018-09-30T09:56:21.353Z,101356.53
2018-09-30T09:58:49.615Z,101352.97
2018-09-30T10:01:17.804Z,101348.43
2018-09-30T10:03:46.538Z,101348.34
2018-09-30T10:06:14.795Z,101343.75
2018-09-30T10:08:43.002Z,101341.81
2018-09-30T10:11:11.216Z,101333.53
2018-09-30T10:13:39.399Z,101334.72
2018-09-30T10:16:07.636Z,101329.04
2018-09-30T10:18:42.159Z,101330.34
2018-09-30T10:21:10.357Z,101328.30
2018-09-30T10:23:39.577Z,101327.91
2018-09-30T10:26:07.747Z,101321.95
2018-09-30T10:28:35.947Z,101316.28
2018-09-30T10:31:04.911Z,101311.86
2018-09-30T10:33:33.144Z,101311.14
2018-09-30T10:36:01.338Z,101306.46
2018-09-30T10:38:29.546Z,101305.81
2018-09-30T10:40:57.717Z,101298.50
2018-09-30T10:43:25.907Z,101296.81
2018-09-30T10:45:54.105Z,101297.91
2018-09-30T10:48:22.389Z,101287.19
2018-09-30T10:50:50.549Z,101283.49
2018-09-30T10:53:19.301Z,101287.44
2018-09-30T10:55:47.465Z,101293.94
2018-09-30T10:58:16.228Z,101291.08
2018-09-30T11:00:44.494Z,101277.87
2018-09-30T11:03:12.723Z,101280.65
2018-09-30T11:05:40.932Z,101276.73
2018-09-30T11:08:09.103Z,101270.66
2018-09-30T11:10:37.309Z,101270.23
2018-09-30T11:13:05.628Z,101270.39
2018-09-30T11:15:33.834Z,101274.49
2018-09-30T11:18:02.009Z,101265.58
2018-09-30T11:20:30.242Z,101262.16
2018-09-30T11:22:58.463Z,101252.39
2018-09-30T11:25:26.745Z,101246.95
2018-09-30T11:27:55.220Z,101240.64
2018-09-30T11:30:30.151Z,101230.36
2018-09-30T11:32:58.363Z,101221.44
2018-09-30T11:35:26.600Z,101222.20
2018-09-30T11:37:54.876Z,101218.23
2018-09-30T11:40:23.111Z,101218.00
2018-09-30T11:42:51.312Z,101214.06
2018-09-30T11:45:19.499Z,101212.44
2018-09-30T11:47:47.766Z,101219.33
2018-09-30T11:50:16.093Z,101208.54
2018-09-30T11:52:44.397Z,101204.55
2018-09-30T11:55:12.611Z,101202.58
2018-09-30T11:57:40.821Z,101197.92
2018-09-30T12:00:09.147Z,101193.30
2018-09-30T12:02:37.366Z,101190.18
2018-09-30T12:05:05.646Z,101188.00
2018-09-30T12:07:33.846Z,101190.18
2018-09-30T12:10:02.305Z,101183.34
2018-09-30T12:12:30.545Z,101168.63
2018-09-30T12:14:59.475Z,101177.99
2018-09-30T12:17:27.696Z,101174.17
2018-09-30T12:19:55.929Z,101171.97
2018-09-30T12:22:24.134Z,101170.97
2018-09-30T12:24:52.367Z,101162.28
2018-09-30T12:27:20.619Z,101151.42
2018-09-30T12:29:48.836Z,101150.05
2018-09-30T12:32:17.001Z,101143.88
2018-09-30T12:34:45.355Z,101136.17
2018-09-30T12:37:13.618Z,101135.25
2018-09-30T12:39:41.841Z,101134.05
2018-09-30T12:42:10.022Z,101127.13
2018-09-30T12:44:38.219Z,101126.91
2018-09-30T12:47:06.424Z,101121.49
2018-09-30T12:49:34.802Z,101120.03
2018-09-30T12:52:02.984Z,101112.75
2018-09-30T12:54:31.219Z,101118.91
2018-09-30T12:56:59.431Z,101108.96
2018-09-30T12:59:27.635Z,101108.09
2018-09-30T13:01:55.914Z,101102.34
2018-09-30T13:04:24.163Z,101098.00
2018-09-30T13:06:52.378Z,101096.11
2018-09-30T13:09:20.588Z,101098.61
2018-09-30T13:11:48.847Z,101096.89
2018-09-30T13:14:17.100Z,101093.81
2018-09-30T13:16:45.307Z,101104.89
2018-09-30T13:19:13.498Z,101093.89
2018-09-30T13:21:41.730Z,101093.84
2018-09-30T13:24:09.997Z,101088.88
2018-09-30T13:26:38.230Z,101088.73
2018-09-30T13:29:06.562Z,101083.26
2018-09-30T13:31:34.826Z,101078.91
2018-09-30T13:34:03.031Z,101075.55
2018-09-30T13:36:31.255Z,101082.53
2018-09-30T13:38:59.455Z,101080.68
2018-09-30T13:41:27.667Z,101085.08
2018-09-30T13:43:55.859Z,101078.70
2018-09-30T13:46:24.036Z,101068.67
2018-09-30T13:48:52.288Z,101070.98
2018-09-30T13:51:20.661Z,101070.98
2018-09-30T13:53:48.808Z,101073.30
2018-09-30T13:56:17.039Z,101069.61
2018-09-30T13:58:45.227Z,101062.95
2018-09-30T14:01:13.649Z,101061.95
2018-09-30T14:03:41.876Z,101064.98
2018-09-30T14:06:10.155Z,101050.95
2018-09-30T14:08:38.338Z,101057.61
2018-09-30T14:11:06.563Z,101053.28
2018-09-30T14:13:34.785Z,101046.60
2018-09-30T14:16:03.019Z,101051.27
2018-09-30T14:18:31.215Z,101046.10
2018-09-30T14:20:59.403Z,101039.28
2018-09-30T14:23:27.570Z,101037.94
2018-09-30T14:25:55.750Z,101038.93
2018-09-30T14:28:24.016Z,101025.75
2018-09-30T14:30:52.249Z,101029.59
2018-09-30T14:33:20.423Z,101031.42
2018-09-30T14:35:48.653Z,101030.91
2018-09-30T14:38:16.887Z,101031.94
2018-09-30T14:40:45.188Z,101022.56
2018-09-30T14:43:16.365Z,101030.92
2018-09-30T14:45:44.595Z,101024.89
2018-09-30T14:48:12.885Z,101025.06
2018-09-30T14:50:41.039Z,101025.38
2018-09-30T14:53:09.241Z,101022.19
2018-09-30T14:55:37.460Z,101026.86
2018-09-30T14:58:05.701Z,101022.19
2018-09-30T15:00:33.883Z,101018.00
2018-09-30T15:03:02.142Z,101013.64
2018-09-30T15:05:30.331Z,101013.63
2018-09-30T15:07:58.559Z,101015.80
2018-09-30T15:10:26.776Z,101011.44
2018-09-30T15:12:55.037Z,101006.92
2018-09-30T15:15:23.497Z,101012.77
2018-09-30T15:17:51.715Z,101008.92
2018-09-30T15:20:19.954Z,101008.24
2018-09-30T15:22:48.239Z,101006.07
2018-09-30T15:25:16.454Z,101010.73
2018-09-30T15:27:44.715Z,101009.05
2018-09-30T15:30:12.990Z,101004.84
2018-09-30T15:32:41.380Z,101008.84
2018-09-30T15:35:09.571Z,101003.50
2018-09-30T15:37:37.758Z,100998.17
2018-09-30T15:40:06.403Z,100990.82
2018-09-30T15:42:34.584Z,100998.49
2018-09-30T15:45:02.937Z,100996.98
2018-09-30T15:47:31.210Z,101001.97
2018-09-30T15:49:59.420Z,100993.27
2018-09-30T15:52:27.703Z,100991.94
2018-09-30T15:54:56.073Z,100992.44
2018-09-30T15:57:24.428Z,100991.26
2018-09-30T15:59:52.699Z,100987.08
2018-09-30T16:02:21.298Z,100985.22
2018-09-30T16:04:49.512Z,100985.03
2018-09-30T16:07:17.676Z,100987.52
2018-09-30T16:09:45.865Z,100982.19
2018-09-30T16:12:14.035Z,100984.83
2018-09-30T16:14:42.995Z,100987.80
2018-09-30T16:17:11.196Z,100983.95
2018-09-30T16:19:39.378Z,100983.13
2018-09-30T16:22:07.584Z,100986.63
2018-09-30T16:24:35.963Z,100987.77
2018-09-30T16:27:04.135Z,100984.58
2018-09-30T16:29:32.347Z,100981.73
2018-09-30T16:32:00.591Z,100986.88
2018-09-30T16:34:28.818Z,100990.38
2018-09-30T16:36:57.020Z,100986.03
2018-09-30T16:39:25.259Z,100990.34
2018-09-30T16:41:53.455Z,100989.13
2018-09-30T16:44:21.913Z,100992.93
2018-09-30T16:46:50.217Z,100994.19
2018-09-30T16:49:18.415Z,100989.66
2018-09-30T16:51:46.635Z,100991.48
2018-09-30T16:54:14.832Z,100997.19
2018-09-30T16:56:43.032Z,100994.97
2018-09-30T16:59:11.231Z,100998.19
2018-09-30T17:01:39.429Z,100999.77
2018-09-30T17:04:07.644Z,101002.02
2018-09-30T17:06:35.913Z,101004.58
2018-09-30T17:09:05.294Z,101005.35
2018-09-30T17:11:33.485Z,101009.78
2018-09-30T17:14:01.666Z,101015.03
2018-09-30T17:16:29.934Z,101017.94
2018-09-30T17:18:58.192Z,101015.91
2018-09-30T17:21:26.403Z,101018.52
2018-09-30T17:23:54.598Z,101027.51
2018-09-30T17:26:22.838Z,101026.61
2018-09-30T17:28:51.063Z,101027.39
2018-09-30T17:31:19.369Z,101026.84
2018-09-30T17:33:47.532Z,101033.84
2018-09-30T17:36:15.731Z,101033.00
2018-09-30T17:38:43.911Z,101037.98
2018-09-30T17:41:12.116Z,101035.31
2018-09-30T17:43:40.267Z,101033.61
2018-09-30T17:46:08.923Z,101036.81
2018-09-30T17:48:37.080Z,101044.03
2018-09-30T17:51:05.287Z,101043.66
2018-09-30T17:53:33.514Z,101043.23
2018-09-30T17:56:01.889Z,101046.81
2018-09-30T17:58:30.110Z,101048.74
2018-09-30T18:00:58.295Z,101048.33
2018-09-30T18:03:26.485Z,101056.58
2018-09-30T18:05:54.742Z,101050.39
2018-09-30T18:08:22.966Z,101054.17
2018-09-30T18:10:51.219Z,101059.27
2018-09-30T18:13:19.343Z,101054.59
2018-09-30T18:15:47.543Z,101051.09
2018-09-30T18:18:15.726Z,101056.55
2018-09-30T18:20:43.969Z,101053.02
2018-09-30T18:23:12.150Z,101053.92
2018-09-30T18:25:40.343Z,101056.16
2018-09-30T18:28:09.018Z,101052.45
2018-09-30T18:30:37.298Z,101048.07
2018-09-30T18:33:05.496Z,101044.98
2018-09-30T18:35:33.655Z,101048.89
2018-09-30T18:38:01.956Z,101043.68
2018-09-30T18:40:42.079Z,101052.06
2018-09-30T18:43:10.765Z,101050.95
2018-09-30T18:45:38.970Z,101046.69
2018-09-30T18:48:07.718Z,101039.97
2018-09-30T18:50:36.011Z,101041.48
2018-09-30T18:53:04.308Z,101040.13
2018-09-30T18:55:32.519Z,101042.66
2018-09-30T18:58:01.155Z,101043.67
2018-09-30T19:00:29.523Z,101041.59
2018-09-30T19:02:57.691Z,101045.12
2018-09-30T19:05:25.881Z,101046.50
2018-09-30T19:07:54.107Z,101043.14
2018-09-30T19:10:22.361Z,101037.30
2018-09-30T19:12:50.522Z,101037.70
2018-09-30T19:15:18.759Z,101034.07
2018-09-30T19:17:47.139Z,101037.91
2018-09-30T19:20:15.393Z,101032.75
2018-09-30T19:22:43.649Z,101031.69
2018-09-30T19:25:11.987Z,101026.30
2018-09-30T19:27:40.123Z,101032.51
2018-09-30T19:30:08.395Z,101038.20
2018-09-30T19:32:36.521Z,101033.17
2018-09-30T19:35:04.731Z,101037.89
2018-09-30T19:37:32.915Z,101035.53
2018-09-30T19:40:01.096Z,101035.80
2018-09-30T19:42:29.314Z,101033.67
2018-09-30T19:44:57.531Z,101041.88
2018-09-30T19:47:25.747Z,101039.88
2018-09-30T19:49:53.925Z,101044.34
2018-09-30T19:52:22.784Z,101040.55
2018-09-30T19:54:50.960Z,101041.13
2018-09-30T19:57:19.151Z,101041.45
2018-09-30T19:59:47.420Z,101044.52
2018-09-30T20:02:15.574Z,101044.74
2018-09-30T20:04:43.755Z,101040.15
2018-09-30T20:07:11.928Z,101044.22
2018-09-30T20:09:40.265Z,101039.36
2018-09-30T20:12:08.643Z,101043.61
2018-09-30T20:14:36.835Z,101037.43
2018-09-30T20:17:05.880Z,101041.89
2018-09-30T20:19:34.376Z,101041.05
2018-09-30T20:22:02.806Z,101038.53
2018-09-30T20:24:31.214Z,101041.67
2018-09-30T20:26:59.614Z,101030.23
2018-09-30T20:29:27.990Z,101033.36
2018-09-30T20:31:56.290Z,101026.38
2018-09-30T20:34:24.572Z,101028.95
2018-09-30T20:36:52.944Z,101031.05
2018-09-30T20:39:21.225Z,101033.39
2018-09-30T20:41:49.521Z,101027.94
2018-09-30T20:44:17.767Z,101026.16
2018-09-30T20:46:46.602Z,101025.45
2018-09-30T20:49:14.834Z,101027.88
2018-09-30T20:51:43.089Z,101028.98
2018-09-30T20:54:11.986Z,101033.73
2018-09-30T20:56:40.304Z,101034.48
2018-09-30T20:59:08.562Z,101026.05
2018-09-30T21:01:36.837Z,101020.35
2018-09-30T21:04:05.141Z,101025.36
2018-09-30T21:06:37.583Z,101025.10
2018-09-30T21:09:09.138Z,101018.47
2018-09-30T21:11:37.409Z,101019.80
2018-09-30T21:14:05.858Z,101025.72
2018-09-30T21:16:34.200Z,101030.66
2018-09-30T21:19:02.559Z,101025.66
2018-09-30T21:21:30.893Z,101016.02
2018-09-30T21:23:59.215Z,101016.92
2018-09-30T21:26:27.567Z,101012.42
2018-09-30T21:28:55.836Z,101011.33
2018-09-30T21:31:24.172Z,101017.95
2018-09-30T21:33:52.517Z,101013.27
2018-09-30T21:36:20.794Z,101013.53
2018-09-30T21:38:49.074Z,101012.69
2018-09-30T21:41:17.394Z,101009.20
2018-09-30T21:43:45.642Z,101008.62
2018-09-30T21:46:13.885Z,101011.41
2018-09-30T21:48:42.217Z,101015.73
2018-09-30T21:51:10.470Z,101017.86
2018-09-30T21:53:38.832Z,101014.59
2018-09-30T21:56:07.212Z,101012.65
2018-09-30T21:58:35.474Z,101005.76
2018-09-30T22:01:04.867Z,101004.75
2018-09-30T22:03:33.152Z,101007.41
2018-09-30T22:06:01.667Z,101004.08
2018-09-30T22:08:29.958Z,100999.45
2018-09-30T22:10:58.252Z,101003.66
2018-09-30T22:13:26.558Z,101011.73
2018-09-30T22:15:54.868Z,101012.39
2018-09-30T22:18:23.157Z,101010.05
2018-09-30T22:20:51.470Z,101010.41
2018-09-30T22:23:19.773Z,101003.43
2018-09-30T22:25:48.080Z,101007.22
2018-09-30T22:28:16.370Z,101006.02
2018-09-30T22:30:44.639Z,101006.99
2018-09-30T22:33:12.925Z,101012.78
2018-09-30T22:35:41.239Z,101016.27
2018-09-30T22:38:09.590Z,101018.17
2018-09-30T22:40:37.910Z,101015.09
2018-09-30T22:43:06.256Z,101016.52
2018-09-30T22:45:34.586Z,101011.92
2018-09-30T22:48:02.885Z,101007.67
2018-09-30T22:50:31.174Z,101014.52
2018-09-30T22:52:59.525Z,101012.06
2018-09-30T22:55:27.846Z,101019.89
2018-09-30T22:57:56.160Z,101019.75
2018-09-30T23:00:24.459Z,101017.45
2018-09-30T23:02:52.733Z,101016.48
2018-09-30T23:05:21.021Z,101013.13
2018-09-30T23:07:49.309Z,101015.51
2018-09-30T23:10:17.565Z,101014.53
2018-09-30T23:12:45.854Z,101015.73
2018-09-30T23:15:14.229Z,101018.73
2018-09-30T23:17:42.519Z,101014.89
2018-09-30T23:20:15.094Z,101017.19
2018-09-30T23:22:43.444Z,101018.16
2018-09-30T23:25:11.801Z,101015.29
2018-09-30T23:27:40.166Z,101020.59
2018-09-30T23:30:08.507Z,101016.27
2018-09-30T23:32:37.076Z,101013.13
2018-09-30T23:35:05.406Z,101015.16
2018-09-30T23:37:33.763Z,101017.32
2018-09-30T23:40:02.139Z,101013.70
2018-09-30T23:42:30.481Z,101028.86
2018-09-30T23:44:58.964Z,101024.26
2018-09-30T23:47:27.337Z,101020.95
2018-09-30T23:49:55.622Z,101025.50
2018-09-30T23:52:23.897Z,101020.06
2018-09-30T23:54:52.485Z,101029.22
2018-09-30T23:57:20.825Z,101024.27
2018-09-30T23:59:49.507Z,101022.80
